Pulaski, NY

5:08 AM EDT on August 01, 2015 (GMT -0400)
Deerfield Apartments | | Change Station
CLOSE
Current Station
Personal Weather Station
Location: Pulaski, NY
Elevation: 404 ft
Nearby Weather Stations
Active Advisory: Severe Thunderstorm Warning

Elev 404 ft 43.57 °N, 76.12 °W | Updated 1 second ago

Partly Cloudy
Partly Cloudy
60.4 °F
Feels Like 60.4 °F
N
0.0
Wind Variable Wind from NNW
Gusts 0.0 mph

Today
High -- | Low -- °F
--% Chance of Precip.
Yesterday
High -- | Low -- °F
Precip. -- in
5:53 AM 8:27 PM
Full, 99% visible
Pressure 29.76 in
Visibility 10.0 miles
Clouds Clear
Dew Point 60 °F
Humidity 99%
Rainfall 0.46 in
Snow Depth Not available.
UV 0.0 out of 12
Pollen 7.60 out of 12
Air Quality Not available.
Flu Activity Not available.
METAR KFZY 010854Z AUTO 21005KT 10SM CLR 17/16 A2977 RMK AO2 SLP078 P0001 60001 T01720161 55004

More Conditions Fewer Conditions

Pressure 29.76 in
Visibility 10.0 miles
Clouds Clear
Dew Point 60 °F
Humidity 99%
Rainfall 0.46 in
Snow Depth Not available.
UV 0.0 out of 12
Pollen 7.60 out of 12
Air Quality Not available.
Flu Activity Not available.
METAR KFZY 010854Z AUTO 21005KT 10SM CLR 17/16 A2977 RMK AO2 SLP078 P0001 60001 T01720161 55004

More Conditions Fewer Conditions

10-Day Weather Forecast

×

Almanac

Astronomy

Aug. 01, 2015 Rise Set
Actual Time
Civil Twilight
Nautical Twilight
Astronomical Twilight
Moon
Length of Visible Light
Length of Day
Tomorrow will be .
, % of the Moon is Illuminated

Today's Extremes

State Highs State Lows

Community

WunderPhotos

Upload Photos

1,842,905 photos uploaded!

WunderBlogs® & News

Nearby

Air Quality

  Air Quality AQ Index Pollutant
Not available.

Snow Depth

Station Depth Elevation

Earthquake Activity

City Distance Mag. Time & Date
Minimum magnitude displayed is 2.5.

Coastal Water Temperatures

Place Temperature

Stations

Nearby Weather Stations

Station Location Temp. Windchill Dew Point Humidity Wind Precip. Elev Updated Type
                   
Severe Thunderstorm Warning
Statement as of 3:25 AM EDT on August 01, 2015

... The Severe Thunderstorm Warning for northeastern Oswego and
southeastern Jefferson counties is cancelled...

the severe thunderstorm which prompted the warning has moved out of
the warned area. Therefore the warning has been cancelled for this
particular area.

Lat... Lon 4360 7567 4368 7576 4385 7573 4413 7527
      4410 7517 4366 7511
time... Mot... loc 0725z 244deg 33kt 4373 7560